Date,TemperatureHighF,TemperatureAvgF,TemperatureLowF,DewpointHighF,DewpointAvgF,DewpointLowF,HumidityHigh,HumidityAvg,HumidityLow,PressureMaxIn,PressureMinIn,WindSpeedMaxMPH,WindSpeedAvgMPH,GustSpeedMaxMPH,PrecipitationSumIn
2013-4-1,55.0,47.9,39.0,47.0,42.9,19.0,98,84,49,29.77,29.55,16,8,31,0.30
2013-4-2,43.0,36.7,30.0,21.0,16.9,10.0,59,45,30,29.96,29.76,12,7,28,0.05
2013-4-3,47.0,38.5,31.0,17.0,15.2,13.0,54,39,26,30.11,29.92,12,8,30,0.00
2013-4-4,47.0,39.3,31.0,35.0,22.9,16.0,82,53,36,30.28,30.09,13,8,25,0.00
2013-4-5,51.0,43.4,40.0,45.0,38.6,33.0,95,83,70,30.09,29.63,12,5,23,0.06
2013-4-6,42.0,38.4,33.0,36.0,22.1,13.0,80,53,32,30.33,29.82,14,6,26,0.01
2013-4-7,48.0,40.6,28.0,43.0,33.1,25.0,92,76,47,30.33,30.04,17,8,34,0.00
2013-4-8,59.0,51.5,45.0,47.0,43.3,40.0,93,75,54,30.11,29.96,14,6,25,0.00
2013-4-9,68.0,52.9,45.0,54.0,46.7,40.0,98,81,59,30.10,29.83,13,5,22,0.01
2013-4-10,56.0,48.8,45.0,50.0,44.9,42.0,97,87,72,30.00,29.85,8,3,15,0.33
2013-4-11,50.0,46.2,44.0,46.0,41.0,34.0,99,84,62,30.12,29.79,7,3,16,0.26
2013-4-12,44.0,42.2,38.0,43.0,36.6,29.0,98,82,57,30.14,29.65,16,5,29,0.94
2013-4-13,46.0,41.8,39.0,42.0,39.2,37.0,98,91,75,29.93,29.65,14,6,30,0.54
2013-4-14,56.0,46.7,40.0,43.0,38.6,30.0,95,75,51,30.16,29.92,10,3,24,0.01
2013-4-15,52.0,44.7,39.0,43.0,37.7,30.0,93,77,59,30.41,30.16,9,3,14,0.00
2013-4-16,56.0,47.7,38.0,48.0,43.0,37.0,98,85,68,30.41,30.11,18,8,29,0.00
2013-4-17,60.0,53.0,42.0,52.0,44.0,34.0,96,74,38,30.32,30.08,16,5,29,0.00
2013-4-18,55.0,47.8,38.0,46.0,38.3,30.0,97,72,43,30.41,30.17,14,5,25,0.00
2013-4-19,63.0,56.3,50.0,59.0,54.7,47.0,99,95,87,30.17,29.76,20,11,36,0.00
2013-4-20,59.0,53.0,45.0,59.0,49.5,39.0,99,88,68,30.16,29.68,18,7,34,0.33
2013-4-21,47.0,42.8,36.0,40.0,29.1,25.0,76,58,44,30.65,30.16,10,5,23,0.01
2013-4-22,51.0,42.4,34.0,37.0,32.7,27.0,86,70,43,30.71,30.55,10,3,21,0.00
2013-4-23,45.0,43.5,41.0,44.0,41.9,35.0,98,95,79,30.55,29.97,10,4,27,1.06
2013-4-24,58.0,48.5,43.0,52.0,45.8,42.0,99,91,74,29.98,29.80,20,10,38,1.27
2013-4-25,57.0,52.0,44.0,53.0,46.4,40.0,97,83,53,30.23,29.90,12,5,22,0.06
2013-4-26,61.0,49.9,41.0,44.0,39.7,35.0,98,72,41,30.40,30.23,7,2,16,0.02
2013-4-27,59.0,49.0,38.0,46.0,38.4,32.0,98,70,39,30.40,30.32,6,2,13,0.00
2013-4-28,62.0,51.0,38.0,47.0,40.7,-99.9,92,73,42,30.34,30.26,10,3,16,0.00
2013-4-29,63.0,52.2,44.0,48.0,40.2,24.0,96,69,23,30.28,30.23,8,3,17,0.00
2013-4-30,64.0,51.9,40.0,43.0,35.8,28.0,96,59,27,30.35,30.24,6,1,13,0.00